Time;durP1;ratioP1;P1;durP2;ratioP2;P2;SDS_P1;SDS_P2;PMS_P1;PMS_P2;Temp;Humidity;BMP_temperature;BMP_pressure;BME280_temperature;BME280_humidity;BME280_pressure;Samples;Min_cycle;Max_cycle;Signal;HPM_P1;HPM_P2
2023/01/11 00:00:35;;;;;;;1.85;0.70;;;18.60;69.60;;;;;;4545258;31;20131;-66
2023/01/11 00:03:03;;;;;;;1.33;0.50;;;18.50;69.50;;;;;;4544770;31;20294;-66
2023/01/11 00:05:29;;;;;;;2.15;0.70;;;18.60;69.60;;;;;;4546170;31;20108;-66
2023/01/11 00:07:55;;;;;;;1.85;0.80;;;18.50;69.60;;;;;;4530802;31;20227;-66
2023/01/11 00:10:21;;;;;;;2.78;0.98;;;18.50;69.60;;;;;;4546489;31;20104;-66
2023/01/11 00:12:47;;;;;;;1.40;0.60;;;18.50;69.60;;;;;;4562250;31;20113;-66
2023/01/11 00:15:14;;;;;;;1.45;0.60;;;18.50;69.60;;;;;;4561206;31;20135;-66
2023/01/11 00:17:40;;;;;;;1.92;0.90;;;18.50;69.50;;;;;;4562388;31;20190;-66
2023/01/11 00:20:10;;;;;;;1.63;0.57;;;18.50;69.60;;;;;;4560870;31;20186;-66
2023/01/11 00:22:36;;;;;;;1.63;0.70;;;18.50;69.60;;;;;;4563007;31;20283;-66
2023/01/11 00:25:03;;;;;;;1.90;0.60;;;18.40;69.50;;;;;;4538269;31;20119;-66
2023/01/11 00:27:33;;;;;;;1.52;0.85;;;18.40;69.50;;;;;;4523625;31;20147;-66
2023/01/11 00:29:59;;;;;;;1.45;0.52;;;18.40;69.50;;;;;;4561221;31;20247;-66
2023/01/11 00:32:26;;;;;;;3.17;0.80;;;18.40;69.50;;;;;;4561382;31;20157;-66
2023/01/11 00:34:52;;;;;;;1.50;0.57;;;18.40;69.50;;;;;;4562634;31;20123;-66
2023/01/11 00:37:18;;;;;;;1.70;0.65;;;18.40;69.50;;;;;;4557877;31;20127;-66
2023/01/11 00:39:44;;;;;;;1.58;0.52;;;18.40;70.40;;;;;;4558971;31;20127;-66
2023/01/11 00:50:32;;;;;;;1.50;0.60;;;18.40;69.50;;;;;;4547045;31;20135;-66
2023/01/11 00:52:59;;;;;;;1.15;0.50;;;18.30;69.60;;;;;;4552615;31;20135;-66
2023/01/11 00:55:25;;;;;;;1.45;0.65;;;18.30;69.50;;;;;;4546101;31;20288;-66
2023/01/11 00:57:51;;;;;;;1.67;0.60;;;18.30;69.90;;;;;;4560596;31;20197;-66
2023/01/11 01:00:19;;;;;;;1.35;0.47;;;18.30;69.60;;;;;;4559552;31;20561;-66
2023/01/11 01:02:46;;;;;;;1.00;0.57;;;18.30;69.60;;;;;;4554350;31;20167;-66
2023/01/11 01:05:12;;;;;;;2.28;0.60;;;18.30;69.60;;;;;;4545465;31;20147;-66
2023/01/11 01:07:38;;;;;;;1.55;0.43;;;18.30;69.60;;;;;;4553786;31;20250;-66
2023/01/11 01:10:05;;;;;;;1.35;0.40;;;18.30;69.60;;;;;;4522453;31;20133;-66
2023/01/11 01:15:15;;;;;;;1.17;0.50;;;18.30;69.60;;;;;;4545035;31;20154;-66
2023/01/11 01:17:41;;;;;;;1.75;0.70;;;18.20;69.50;;;;;;4541410;31;20277;-66
2023/01/11 01:20:07;;;;;;;1.02;0.50;;;18.20;69.50;;;;;;4546337;31;20127;-66
2023/01/11 01:22:33;;;;;;;1.52;0.63;;;18.20;69.60;;;;;;4535899;31;20134;-66
2023/01/11 01:24:59;;;;;;;0.80;0.40;;;18.20;69.60;;;;;;4543545;31;20140;-66
2023/01/11 01:27:25;;;;;;;1.02;0.60;;;18.20;69.60;;;;;;4534362;31;20544;-66
2023/01/11 01:29:51;;;;;;;1.50;0.80;;;18.20;69.60;;;;;;4546360;31;20096;-66
2023/01/11 01:32:17;;;;;;;0.80;0.32;;;18.20;69.60;;;;;;4536324;31;20483;-66
2023/01/11 01:34:43;;;;;;;1.23;0.40;;;18.20;69.60;;;;;;4562494;31;20178;-66
2023/01/11 01:37:10;;;;;;;1.13;0.40;;;18.20;69.60;;;;;;4546009;31;20295;-66
2023/01/11 01:39:36;;;;;;;0.85;0.50;;;18.20;69.50;;;;;;4547740;31;20146;-66
2023/01/11 01:42:02;;;;;;;0.60;0.40;;;18.20;69.60;;;;;;4560883;31;20189;-66
2023/01/11 01:44:57;;;;;;;0.90;0.40;;;18.20;69.60;;;;;;4547481;31;20143;-66
2023/01/11 01:47:30;;;;;;;0.70;0.50;;;18.20;69.50;;;;;;4562269;31;20567;-66
2023/01/11 01:50:00;;;;;;;0.88;0.38;;;18.10;69.50;;;;;;4545967;31;20135;-66
2023/01/11 01:52:27;;;;;;;0.75;0.38;;;18.10;69.50;;;;;;4562371;31;20131;-66
2023/01/11 01:54:56;;;;;;;0.52;0.30;;;18.10;69.60;;;;;;4546190;31;20150;-66
2023/01/11 01:57:26;;;;;;;0.75;0.40;;;18.10;69.50;;;;;;4561844;31;20127;-66
2023/01/11 01:59:55;;;;;;;1.17;0.40;;;18.10;69.60;;;;;;4562079;31;20104;-66
2023/01/11 02:02:23;;;;;;;0.80;0.38;;;18.10;69.60;;;;;;4560518;31;20163;-66
2023/01/11 02:04:51;;;;;;;1.05;0.40;;;18.10;69.60;;;;;;4562141;31;20588;-66
2023/01/11 02:07:20;;;;;;;0.70;0.40;;;18.10;69.60;;;;;;4520953;31;20127;-66
2023/01/11 02:10:14;;;;;;;0.80;0.35;;;18.10;69.60;;;;;;4561908;31;20142;-66
2023/01/11 02:12:42;;;;;;;0.68;0.40;;;18.10;69.60;;;;;;4561718;31;20131;-66
2023/01/11 02:15:10;;;;;;;1.73;0.63;;;18.10;69.60;;;;;;4560581;31;20142;-66
2023/01/11 02:17:36;;;;;;;1.02;0.30;;;18.10;69.60;;;;;;4561902;31;20239;-66
2023/01/11 02:20:34;;;;;;;1.33;0.43;;;18.00;69.50;;;;;;4560316;31;20266;-66
2023/01/11 02:23:21;;;;;;;1.00;0.50;;;18.00;69.50;;;;;;4558322;31;20139;-66
2023/01/11 02:26:15;;;;;;;0.55;0.30;;;18.00;69.50;;;;;;4561943;31;20198;-66
2023/01/11 02:29:07;;;;;;;0.50;0.32;;;18.00;69.50;;;;;;4544168;31;20192;-66
2023/01/11 02:31:37;;;;;;;0.52;0.22;;;18.00;69.50;;;;;;4546394;31;20131;-66
2023/01/11 02:34:11;;;;;;;1.13;0.30;;;18.00;69.50;;;;;;4561599;31;20131;-66
2023/01/11 02:36:55;;;;;;;0.75;0.50;;;18.00;69.50;;;;;;4560145;31;20127;-66
2023/01/11 02:39:51;;;;;;;1.10;0.38;;;18.00;69.50;;;;;;4547355;31;20131;-67
2023/01/11 02:45:49;;;;;;;0.63;0.30;;;18.00;69.60;;;;;;4544084;31;20354;-66
2023/01/11 02:48:48;;;;;;;0.90;0.40;;;18.00;69.50;;;;;;4510748;31;20138;-66
2023/01/11 02:51:22;;;;;;;0.82;0.32;;;18.00;69.60;;;;;;4545842;31;20227;-66
2023/01/11 02:54:00;;;;;;;0.50;0.20;;;17.90;69.50;;;;;;4547139;31;20146;-66
2023/01/11 02:56:29;;;;;;;0.63;0.30;;;17.90;69.60;;;;;;4548866;31;20120;-66
2023/01/11 02:58:57;;;;;;;1.40;0.38;;;17.90;69.60;;;;;;4547016;31;20139;-66
2023/01/11 03:01:24;;;;;;;0.85;0.40;;;17.90;69.60;;;;;;4548626;31;20194;-66
2023/01/11 03:03:51;;;;;;;0.90;0.40;;;17.90;69.60;;;;;;4547582;31;20123;-66
2023/01/11 03:06:30;;;;;;;0.75;0.20;;;17.90;69.60;;;;;;4547476;31;20131;-66
2023/01/11 03:09:19;;;;;;;0.90;0.40;;;17.90;69.60;;;;;;4534343;31;20143;-66
2023/01/11 03:15:03;;;;;;;0.47;0.20;;;17.90;69.50;;;;;;4547277;31;20139;-66
2023/01/11 03:17:28;;;;;;;1.20;0.40;;;17.90;69.60;;;;;;4548199;31;20135;-66
2023/01/11 03:20:07;;;;;;;0.70;0.28;;;17.90;69.60;;;;;;4546659;31;20166;-66
2023/01/11 03:22:51;;;;;;;0.52;0.30;;;17.90;69.60;;;;;;4548223;31;20269;-66
2023/01/11 03:25:45;;;;;;;0.52;0.28;;;17.90;69.60;;;;;;4547556;31;20136;-66
2023/01/11 03:28:21;;;;;;;0.28;0.20;;;17.90;69.60;;;;;;4546282;31;20128;-66
2023/01/11 03:31:08;;;;;;;0.88;0.40;;;17.90;69.60;;;;;;4547998;31;20193;-66
2023/01/11 03:34:06;;;;;;;0.50;0.20;;;17.80;69.50;;;;;;4535362;31;20138;-66
2023/01/11 03:36:41;;;;;;;1.05;0.50;;;17.80;69.50;;;;;;4548053;31;20107;-66
2023/01/11 03:39:28;;;;;;;0.60;0.40;;;17.80;69.50;;;;;;4549830;31;20138;-66
2023/01/11 03:41:58;;;;;;;0.30;0.20;;;17.80;69.50;;;;;;4562613;31;20135;-66
2023/01/11 03:44:27;;;;;;;0.47;0.20;;;17.80;69.50;;;;;;4564043;31;20216;-67
2023/01/11 03:46:58;;;;;;;0.75;0.32;;;17.80;69.60;;;;;;4563793;31;20281;-66
2023/01/11 03:49:28;;;;;;;1.05;0.47;;;17.80;69.50;;;;;;4548439;31;20583;-66
2023/01/11 03:51:57;;;;;;;0.43;0.20;;;17.80;69.50;;;;;;4564001;31;20196;-66
2023/01/11 03:54:26;;;;;;;0.50;0.35;;;17.80;70.40;;;;;;4562451;31;20281;-66
2023/01/11 03:57:26;;;;;;;0.63;0.20;;;17.80;69.50;;;;;;4550499;31;20150;-65
2023/01/11 03:59:52;;;;;;;0.60;0.30;;;17.80;69.40;;;;;;4547133;31;20095;-66
2023/01/11 04:02:25;;;;;;;1.38;0.40;;;17.80;69.50;;;;;;4547198;31;20156;-66
2023/01/11 04:04:51;;;;;;;0.82;0.40;;;17.80;69.50;;;;;;4545327;31;20128;-66
2023/01/11 04:07:17;;;;;;;0.40;0.30;;;17.80;69.50;;;;;;4517979;31;20145;-66
2023/01/11 04:09:44;;;;;;;0.82;0.20;;;17.80;69.50;;;;;;4547453;31;20527;-66
2023/01/11 04:12:10;;;;;;;0.73;0.25;;;17.80;69.50;;;;;;4546399;31;20104;-66
2023/01/11 04:14:37;;;;;;;1.08;0.35;;;17.80;69.50;;;;;;4543962;31;20123;-66
2023/01/11 04:17:03;;;;;;;0.80;0.40;;;17.80;69.50;;;;;;4532972;31;20094;-66
2023/01/11 04:19:29;;;;;;;0.70;0.30;;;17.70;69.50;;;;;;4531605;31;20205;-66
2023/01/11 04:21:55;;;;;;;0.52;0.20;;;17.80;69.60;;;;;;4547338;31;20250;-66
2023/01/11 04:24:21;;;;;;;0.80;0.47;;;17.80;69.50;;;;;;4540581;31;20181;-66
2023/01/11 04:26:47;;;;;;;0.88;0.30;;;17.70;69.50;;;;;;4563513;31;20170;-66
2023/01/11 04:29:12;;;;;;;0.47;0.20;;;17.70;69.50;;;;;;4562090;31;20253;-66
2023/01/11 04:31:38;;;;;;;1.08;0.45;;;17.70;69.60;;;;;;4551454;31;20131;-66
2023/01/11 04:34:04;;;;;;;1.23;0.30;;;17.70;69.50;;;;;;4563080;31;20209;-66
2023/01/11 04:36:30;;;;;;;0.57;0.30;;;17.70;69.60;;;;;;4561833;31;20107;-66
2023/01/11 04:38:57;;;;;;;0.77;0.30;;;17.70;69.50;;;;;;4563235;31;20631;-66
2023/01/11 04:44:09;;;;;;;0.50;0.20;;;17.70;69.60;;;;;;4552028;31;20280;-66
2023/01/11 04:46:34;;;;;;;0.63;0.20;;;17.70;70.00;;;;;;4562187;31;20692;-66
2023/01/11 04:49:00;;;;;;;1.06;0.30;;;17.70;69.50;;;;;;4560897;31;20127;-66
2023/01/11 04:51:26;;;;;;;0.85;0.30;;;17.70;69.60;;;;;;4546056;31;20172;-66
2023/01/11 04:53:52;;;;;;;1.20;0.28;;;17.70;70.40;;;;;;4552809;31;20123;-66
2023/01/11 04:56:18;;;;;;;1.08;0.30;;;17.70;69.60;;;;;;4547770;31;20149;-66
2023/01/11 04:58:44;;;;;;;1.67;0.40;;;17.70;69.50;;;;;;4534562;31;20184;-66
2023/01/11 05:01:15;;;;;;;1.08;0.40;;;17.70;69.60;;;;;;4541682;31;20208;-66
2023/01/11 05:03:42;;;;;;;0.60;0.22;;;17.60;69.50;;;;;;4560103;31;20165;-66
2023/01/11 05:06:08;;;;;;;1.00;0.30;;;17.60;69.50;;;;;;4544513;31;20131;-67
2023/01/11 05:08:34;;;;;;;0.85;0.40;;;17.70;69.60;;;;;;4561603;31;20094;-66
2023/01/11 05:11:03;;;;;;;1.08;0.47;;;17.60;69.60;;;;;;4559575;31;20181;-67
2023/01/11 05:13:42;;;;;;;1.10;0.30;;;17.60;69.60;;;;;;4544549;31;20288;-66
2023/01/11 05:16:12;;;;;;;1.42;0.40;;;17.60;69.50;;;;;;4559810;31;20119;-65
2023/01/11 05:18:45;;;;;;;1.30;0.32;;;17.60;69.50;;;;;;4561142;31;20135;-66
2023/01/11 05:21:12;;;;;;;1.00;0.30;;;17.70;69.60;;;;;;4561243;31;20090;-66
2023/01/11 05:23:39;;;;;;;0.32;0.20;;;17.60;69.60;;;;;;4560852;31;20131;-66
2023/01/11 05:26:08;;;;;;;1.45;0.40;;;17.60;69.60;;;;;;4554321;31;20146;-66
2023/01/11 05:28:34;;;;;;;1.05;0.30;;;17.60;69.60;;;;;;4556730;31;20297;-66
2023/01/11 05:31:00;;;;;;;0.77;0.30;;;17.60;69.60;;;;;;4540688;31;20159;-66
2023/01/11 05:33:26;;;;;;;1.30;0.40;;;17.60;69.70;;;;;;4541505;31;20131;-65
2023/01/11 05:36:04;;;;;;;0.50;0.25;;;17.60;69.70;;;;;;4541749;31;20615;-66
2023/01/11 05:38:31;;;;;;;1.13;0.22;;;17.60;69.70;;;;;;4556977;31;20091;-65
2023/01/11 05:41:01;;;;;;;1.95;0.47;;;17.60;69.70;;;;;;4555414;31;20143;-65
2023/01/11 05:45:27;;;;;;;0.85;0.40;;;17.60;69.70;;;;;;4556141;31;20235;-65
2023/01/11 05:46:17;;;;;;;1.67;0.40;;;17.60;69.70;;;;;;4541595;31;20112;-65
2023/01/11 05:48:43;;;;;;;1.48;0.57;;;17.60;69.70;;;;;;4542322;31;20162;-65
2023/01/11 05:51:09;;;;;;;1.70;0.70;;;17.60;69.80;;;;;;4556512;31;20165;-65
2023/01/11 05:53:35;;;;;;;0.82;0.30;;;17.50;69.70;;;;;;4554003;31;20120;-66
2023/01/11 05:56:00;;;;;;;1.52;0.40;;;17.50;69.70;;;;;;4557999;31;20119;-65
2023/01/11 05:58:26;;;;;;;0.52;0.25;;;17.60;69.80;;;;;;4549413;31;20135;-65
2023/01/11 06:00:55;;;;;;;1.95;0.52;;;17.50;69.70;;;;;;4537203;31;20150;-65
2023/01/11 06:03:22;;;;;;;2.30;0.40;;;17.50;69.70;;;;;;4539029;31;20135;-65
2023/01/11 06:05:49;;;;;;;1.13;0.38;;;17.50;69.80;;;;;;4548629;31;20107;-65
2023/01/11 06:08:15;;;;;;;0.85;0.28;;;17.50;69.80;;;;;;4551517;31;20137;-65
2023/01/11 06:10:42;;;;;;;1.15;0.40;;;17.50;69.80;;;;;;4549761;31;20216;-66
2023/01/11 06:13:25;;;;;;;1.85;0.40;;;17.50;69.80;;;;;;4550319;31;20137;-65
2023/01/11 06:15:59;;;;;;;;;;;17.50;69.80;;;;;;4549636;31;20568;-66
2023/01/11 06:18:26;;;;;;;0.83;0.40;;;17.50;69.80;;;;;;4531236;31;20020;-66
2023/01/11 06:20:53;;;;;;;0.68;0.30;;;17.50;69.80;;;;;;4545124;31;20222;-65
2023/01/11 06:23:20;;;;;;;0.77;0.30;;;17.50;69.80;;;;;;4534976;31;20143;-66
2023/01/11 06:25:46;;;;;;;1.33;0.40;;;17.50;69.80;;;;;;4548421;31;20130;-65
2023/01/11 06:28:12;;;;;;;2.17;0.50;;;17.50;69.80;;;;;;4549188;31;20277;-65
2023/01/11 06:30:38;;;;;;;1.88;0.55;;;17.50;69.90;;;;;;4557362;31;20185;-65
2023/01/11 06:33:07;;;;;;;1.30;0.40;;;17.50;69.80;;;;;;4558645;31;20143;-66
2023/01/11 06:35:38;;;;;;;0.77;0.40;;;17.50;69.90;;;;;;4548771;31;20162;-65
2023/01/11 06:38:08;;;;;;;0.52;0.20;;;17.50;69.90;;;;;;4559410;31;20131;-66
2023/01/11 06:40:35;;;;;;;1.08;0.50;;;17.40;69.80;;;;;;4548044;31;20267;-65
2023/01/11 06:43:01;;;;;;;1.42;0.50;;;17.40;69.80;;;;;;4559482;31;20193;-65
2023/01/11 06:45:31;;;;;;;1.33;0.70;;;17.40;69.80;;;;;;4563021;31;20149;-65
2023/01/11 06:47:58;;;;;;;1.77;0.50;;;17.40;69.90;;;;;;4549247;31;20523;-65
2023/01/11 06:50:24;;;;;;;1.45;0.40;;;17.50;69.90;;;;;;4562831;31;20187;-65
2023/01/11 06:52:57;;;;;;;2.08;0.50;;;17.40;69.80;;;;;;4545327;31;20613;-65
2023/01/11 06:55:24;;;;;;;1.70;0.40;;;17.40;69.90;;;;;;4562010;31;20130;-66
2023/01/11 06:57:50;;;;;;;1.17;0.30;;;17.40;69.90;;;;;;4562982;31;20120;-66
2023/01/11 07:00:17;;;;;;;0.70;0.30;;;17.40;69.90;;;;;;4564107;31;20126;-65
2023/01/11 07:02:44;;;;;;;2.40;0.60;;;17.40;69.90;;;;;;4542745;31;20146;-66
2023/01/11 07:05:10;;;;;;;2.15;0.50;;;17.40;69.80;;;;;;4563537;31;20273;-66
2023/01/11 07:07:37;;;;;;;2.08;0.50;;;17.40;69.90;;;;;;4546469;31;20131;-66
2023/01/11 07:10:06;;;;;;;1.52;0.63;;;17.40;69.90;;;;;;4558332;31;20151;-66
2023/01/11 07:12:33;;;;;;;0.80;0.30;;;17.40;69.90;;;;;;4554826;31;20223;-66
2023/01/11 07:14:58;;;;;;;1.58;0.55;;;17.40;69.90;;;;;;4557982;31;20142;-66
2023/01/11 07:17:25;;;;;;;1.13;0.30;;;17.40;69.90;;;;;;4554943;31;20123;-65
2023/01/11 07:19:50;;;;;;;2.20;0.63;;;17.30;69.80;;;;;;4556699;31;20138;-66
2023/01/11 07:22:16;;;;;;;1.08;0.43;;;17.40;69.90;;;;;;4556494;31;20123;-66
2023/01/11 07:24:42;;;;;;;0.98;0.45;;;17.40;69.90;;;;;;4538351;31;20299;-66
2023/01/11 07:27:08;;;;;;;1.23;0.50;;;17.30;69.80;;;;;;4540367;31;20269;-66
2023/01/11 07:29:34;;;;;;;0.73;0.40;;;17.30;69.80;;;;;;4531679;31;20139;-66
2023/01/11 07:31:59;;;;;;;2.05;0.60;;;17.30;69.80;;;;;;4562186;31;20222;-66
2023/01/11 07:34:25;;;;;;;2.08;0.40;;;17.30;69.80;;;;;;4540254;31;20468;-66
2023/01/11 07:36:51;;;;;;;1.67;0.63;;;17.40;69.80;;;;;;4535032;31;20112;-66
2023/01/11 07:39:17;;;;;;;1.55;0.47;;;17.30;69.60;;;;;;4529079;31;20120;-66
2023/01/11 07:44:27;;;;;;;3.13;0.40;;;17.40;69.50;;;;;;4552178;31;20139;-66
2023/01/11 07:46:54;;;;;;;2.03;0.70;;;17.40;69.40;;;;;;4540733;31;20076;-67
2023/01/11 07:49:20;;;;;;;1.67;0.50;;;17.40;69.40;;;;;;4552338;31;20127;-66
2023/01/11 07:51:46;;;;;;;1.75;0.70;;;17.50;69.20;;;;;;4537855;31;20150;-66
2023/01/11 07:54:12;;;;;;;1.52;0.60;;;17.50;69.10;;;;;;4536078;31;20119;-66
2023/01/11 07:56:38;;;;;;;1.67;0.50;;;17.50;69.00;;;;;;4552379;31;20112;-66
2023/01/11 07:59:03;;;;;;;1.52;0.63;;;17.50;68.90;;;;;;4538190;31;20258;-66
2023/01/11 08:01:29;;;;;;;1.40;0.50;;;17.50;68.90;;;;;;4551786;31;20119;-66
2023/01/11 08:03:55;;;;;;;1.98;0.50;;;17.50;68.80;;;;;;4540222;31;20540;-66
2023/01/11 08:06:21;;;;;;;3.00;0.65;;;17.60;68.80;;;;;;4545985;31;20239;-66
2023/01/11 08:08:47;;;;;;;2.50;0.70;;;17.50;68.80;;;;;;4557170;31;20135;-66
2023/01/11 08:16:41;;;;;;;2.80;0.88;;;17.60;69.30;;;;;;4554530;31;20285;-65
2023/01/11 08:19:10;;;;;;;5.53;0.82;;;17.60;69.30;;;;;;4534292;31;20159;-65
2023/01/11 08:21:36;;;;;;;1.90;0.75;;;17.70;69.20;;;;;;4546164;31;20143;-65
2023/01/11 08:24:02;;;;;;;2.30;0.80;;;17.80;69.00;;;;;;4558873;31;20115;-66
2023/01/11 08:26:27;;;;;;;2.28;0.80;;;17.90;68.60;;;;;;4558913;31;20143;-66
2023/01/11 08:28:54;;;;;;;1.98;0.60;;;18.00;68.30;;;;;;4559518;31;20659;-66
2023/01/11 08:31:20;;;;;;;4.90;0.73;;;18.20;68.00;;;;;;4556472;31;20127;-66
2023/01/11 08:33:48;;;;;;;2.80;0.75;;;18.30;67.60;;;;;;4552699;31;20120;-66
2023/01/11 08:36:14;;;;;;;1.67;0.82;;;18.50;67.10;;;;;;4542261;31;20149;-67
2023/01/11 08:38:40;;;;;;;2.90;0.80;;;18.60;66.70;;;;;;4560448;31;20116;-66
2023/01/11 08:41:09;;;;;;;1.60;0.60;;;18.80;66.40;;;;;;4558189;31;20130;-66
2023/01/11 08:43:39;;;;;;;1.73;0.57;;;19.00;66.00;;;;;;4559253;31;20111;-65
2023/01/11 08:46:05;;;;;;;1.73;0.70;;;19.10;65.60;;;;;;4545025;31;20606;-66
2023/01/11 08:48:32;;;;;;;3.80;1.25;;;19.20;65.30;;;;;;4542826;31;20513;-66
2023/01/11 08:50:58;;;;;;;2.15;0.63;;;19.40;65.00;;;;;;4545127;31;20540;-66
2023/01/11 08:53:24;;;;;;;1.70;0.60;;;19.50;64.70;;;;;;4556617;31;20175;-65
2023/01/11 08:55:51;;;;;;;2.47;0.80;;;19.50;64.40;;;;;;4554518;31;20573;-65
2023/01/11 08:58:18;;;;;;;4.88;0.85;;;19.60;64.20;;;;;;4545859;31;20115;-65
2023/01/11 09:00:44;;;;;;;1.58;0.70;;;19.70;64.10;;;;;;4547751;31;20611;-66
2023/01/11 09:03:11;;;;;;;1.45;0.73;;;19.70;64.10;;;;;;4544999;31;20290;-66
2023/01/11 09:05:38;;;;;;;1.83;0.57;;;19.70;64.00;;;;;;4547472;31;20139;-65
2023/01/11 09:08:05;;;;;;;2.60;0.77;;;19.80;63.90;;;;;;4546559;31;20619;-65
2023/01/11 09:10:32;;;;;;;3.40;1.02;;;19.70;63.90;;;;;;4555421;31;20151;-64
2023/01/11 09:12:58;;;;;;;3.10;0.70;;;19.80;63.90;;;;;;4544002;31;20501;-65
2023/01/11 09:15:24;;;;;;;2.17;0.68;;;19.80;64.00;;;;;;4546900;31;20135;-65
2023/01/11 09:17:51;;;;;;;2.67;0.85;;;19.80;63.90;;;;;;4557466;31;20143;-65
2023/01/11 09:20:18;;;;;;;1.70;0.70;;;19.80;63.90;;;;;;4544697;31;20142;-65
2023/01/11 09:22:49;;;;;;;2.13;0.70;;;19.80;64.00;;;;;;4558329;31;20261;-65
2023/01/11 09:25:15;;;;;;;1.33;0.52;;;19.90;64.00;;;;;;4560419;31;20193;-65
2023/01/11 09:27:44;;;;;;;2.42;0.73;;;19.90;63.90;;;;;;4557697;31;20182;-66
2023/01/11 09:30:12;;;;;;;18.10;1.27;;;19.90;63.90;;;;;;4548212;31;20289;-65
2023/01/11 09:32:38;;;;;;;1.70;0.70;;;19.90;63.90;;;;;;4554030;31;20127;-65
2023/01/11 09:35:05;;;;;;;2.42;0.80;;;19.90;63.90;;;;;;4559163;31;20141;-65
2023/01/11 09:37:31;;;;;;;2.08;0.77;;;19.90;63.70;;;;;;4544289;31;20122;-66
2023/01/11 09:39:58;;;;;;;3.03;0.60;;;19.90;63.70;;;;;;4541427;31;20200;-66
2023/01/11 09:42:38;;;;;;;4.28;0.90;;;20.00;63.70;;;;;;4552600;31;20297;-66
2023/01/11 09:45:34;;;;;;;1.95;0.50;;;19.90;63.60;;;;;;4530494;31;20481;-65
2023/01/11 09:48:18;;;;;;;2.67;0.70;;;20.00;63.60;;;;;;4536130;31;20134;-65
2023/01/11 09:50:48;;;;;;;2.42;0.80;;;20.00;63.60;;;;;;4560701;31;20151;-64
2023/01/11 09:53:33;;;;;;;5.75;0.70;;;20.10;63.60;;;;;;4561258;31;20127;-65
2023/01/11 09:56:04;;;;;;;2.33;0.73;;;20.00;63.50;;;;;;4558546;31;20186;-65
2023/01/11 09:59:16;;;;;;;3.83;0.70;;;20.10;63.50;;;;;;4559861;31;20146;-65
2023/01/11 10:01:52;;;;;;;1.90;0.57;;;20.10;63.50;;;;;;4559118;31;20449;-65
2023/01/11 10:04:41;;;;;;;2.55;0.50;;;20.10;63.40;;;;;;4549002;31;20147;-65
2023/01/11 10:07:28;;;;;;;1.65;0.70;;;20.10;63.30;;;;;;4543751;31;20147;-65
2023/01/11 10:10:52;;;;;;;2.35;0.70;;;20.10;63.30;;;;;;4545722;31;20211;-65
2023/01/11 10:13:51;;;;;;;3.45;0.95;;;20.10;63.30;;;;;;4511848;31;20128;-65
2023/01/11 10:16:59;;;;;;;4.68;1.00;;;20.20;63.20;;;;;;4530619;31;20124;-66
2023/01/11 10:19:34;;;;;;;3.22;0.77;;;20.20;63.20;;;;;;4492803;31;20132;-66
2023/01/11 10:22:18;;;;;;;2.70;0.90;;;20.20;63.30;;;;;;4498630;31;20617;-66
2023/01/11 10:25:17;;;;;;;2.67;0.90;;;20.10;63.40;;;;;;4532843;31;20351;-67
2023/01/11 10:27:54;;;;;;;2.60;0.80;;;20.20;63.60;;;;;;4541634;31;20233;-67
2023/01/11 10:30:46;;;;;;;3.83;1.27;;;20.20;63.70;;;;;;4557158;31;20199;-67
2023/01/11 10:41:40;;;;;;;2.80;0.85;;;20.10;64.00;;;;;;4558185;31;20127;-66
2023/01/11 10:44:09;;;;;;;3.10;0.75;;;20.10;64.10;;;;;;4537444;31;20468;-65
2023/01/11 10:46:43;;;;;;;2.47;0.80;;;20.20;64.10;;;;;;4554228;31;20120;-65
2023/01/11 10:49:37;;;;;;;1.85;0.70;;;20.10;64.20;;;;;;4556968;31;20136;-65
2023/01/11 10:52:32;;;;;;;2.88;0.88;;;20.20;64.30;;;;;;4518447;31;20586;-65
2023/01/11 10:55:01;;;;;;;;;;;20.20;64.40;;;;;;4560525;31;20139;-65
2023/01/11 10:57:42;;;;;;;4.68;0.82;;;20.10;64.30;;;;;;4540859;31;20579;-67
2023/01/11 11:00:15;;;;;;;3.10;0.90;;;20.20;64.40;;;;;;4560555;31;20139;-66
2023/01/11 11:03:44;;;;;;;1.92;0.80;;;20.20;64.40;;;;;;4557871;31;20139;-66
2023/01/11 11:06:32;;;;;;;3.20;0.98;;;20.20;64.50;;;;;;4496240;31;20313;-67
2023/01/11 11:09:38;;;;;;;3.08;0.82;;;20.20;64.50;;;;;;4494845;31;20194;-66
2023/01/11 11:12:30;;;;;;;2.05;0.65;;;20.20;64.50;;;;;;4516618;31;20140;-66
2023/01/11 11:15:13;;;;;;;4.53;0.73;;;20.20;64.50;;;;;;4528544;31;20638;-66
2023/01/11 11:17:51;;;;;;;2.07;0.73;;;20.20;64.60;;;;;;4531731;31;20132;-65
2023/01/11 11:20:17;;;;;;;2.67;0.70;;;20.20;64.60;;;;;;4525593;31;20740;-66
2023/01/11 11:22:44;;;;;;;4.72;0.80;;;20.20;64.70;;;;;;4531693;31;20112;-66
2023/01/11 11:25:27;;;;;;;3.88;0.73;;;20.20;64.70;;;;;;4519247;31;20221;-65
2023/01/11 11:28:19;;;;;;;;;;;20.20;64.70;;;;;;4517888;31;20128;-65
2023/01/11 11:30:46;;;;;;;1.95;0.70;;;20.20;64.80;;;;;;4517766;31;20029;-65
2023/01/11 11:33:27;;;;;;;3.97;0.90;;;20.20;64.70;;;;;;4527776;31;20150;-65
2023/01/11 11:36:04;;;;;;;2.80;0.75;;;20.20;64.70;;;;;;4530885;31;20274;-65
2023/01/11 11:38:32;;;;;;;2.83;0.90;;;20.20;64.70;;;;;;4526376;31;20135;-65
2023/01/11 11:41:10;;;;;;;2.97;0.70;;;20.20;64.70;;;;;;4529849;31;20517;-65
2023/01/11 11:43:41;;;;;;;2.45;0.90;;;20.20;64.70;;;;;;4531064;31;20128;-66
2023/01/11 11:46:12;;;;;;;1.83;0.57;;;20.20;64.70;;;;;;4530214;31;20281;-66
2023/01/11 11:48:39;;;;;;;3.63;0.80;;;20.30;64.80;;;;;;4530725;31;20128;-66
2023/01/11 11:51:28;;;;;;;2.17;0.75;;;20.20;64.70;;;;;;4529417;31;20088;-67
2023/01/11 11:53:56;;;;;;;3.35;0.90;;;20.30;64.80;;;;;;4517163;31;20147;-66
2023/01/11 11:56:36;;;;;;;2.90;0.90;;;20.30;64.80;;;;;;4516403;31;20301;-66
2023/01/11 11:59:08;;;;;;;1.92;0.70;;;20.30;64.80;;;;;;4517985;31;20136;-64
2023/01/11 12:01:39;;;;;;;2.08;0.65;;;20.30;64.80;;;;;;4514989;31;20143;-64
2023/01/11 12:04:29;;;;;;;4.30;1.13;;;20.30;64.80;;;;;;4516134;31;20107;-65
2023/01/11 12:07:33;;;;;;;2.03;0.80;;;20.30;64.80;;;;;;4514949;31;20127;-66
2023/01/11 12:10:11;;;;;;;2.00;0.63;;;20.30;64.80;;;;;;4506751;31;20580;-65
2023/01/11 12:12:55;;;;;;;2.50;0.85;;;20.30;64.80;;;;;;4541168;31;20096;-65
2023/01/11 12:15:28;;;;;;;3.85;0.90;;;20.30;64.90;;;;;;4543082;31;20694;-66
2023/01/11 12:18:15;;;;;;;2.65;0.80;;;20.30;64.90;;;;;;4561820;31;20143;-65
2023/01/11 12:20:43;;;;;;;3.28;1.08;;;20.20;64.90;;;;;;4562265;31;20206;-65
2023/01/11 12:23:22;;;;;;;3.60;0.95;;;20.20;65.00;;;;;;4544045;31;20288;-65
2023/01/11 12:26:06;;;;;;;2.97;0.80;;;20.10;65.00;;;;;;4548332;31;20124;-65
2023/01/11 12:28:41;;;;;;;;;;;20.10;65.10;;;;;;4556884;31;20146;-65
2023/01/11 12:31:18;;;;;;;3.83;1.15;;;20.00;65.30;;;;;;4548049;31;20008;-65
2023/01/11 12:34:07;;;;;;;6.82;1.40;;;20.00;65.30;;;;;;4546796;31;20569;-65
2023/01/11 12:36:36;;;;;;;5.90;1.38;;;19.90;65.30;;;;;;4546795;31;20297;-65
2023/01/11 12:39:25;;;;;;;4.38;1.27;;;19.80;65.30;;;;;;4533679;31;20139;-65
2023/01/11 12:42:04;;;;;;;6.55;1.30;;;19.70;65.10;;;;;;4526446;31;20147;-65
2023/01/11 12:44:30;;;;;;;5.45;1.35;;;19.60;65.10;;;;;;4547315;31;20277;-65
2023/01/11 12:47:04;;;;;;;7.07;1.80;;;19.60;65.00;;;;;;4548474;31;20131;-65
2023/01/11 12:49:42;;;;;;;4.80;1.40;;;19.60;64.90;;;;;;4546374;31;20200;-65
2023/01/11 12:52:38;;;;;;;4.50;1.42;;;19.70;64.80;;;;;;4548552;31;20135;-65
2023/01/11 12:55:11;;;;;;;7.28;1.58;;;19.80;64.50;;;;;;4547761;31;20135;-65
2023/01/11 12:58:04;;;;;;;6.75;1.88;;;19.90;64.20;;;;;;4546686;31;20111;-65
2023/01/11 13:00:57;;;;;;;6.53;1.40;;;19.90;64.00;;;;;;4548435;31;20227;-65
2023/01/11 13:03:54;;;;;;;7.90;2.03;;;20.10;63.80;;;;;;4546481;31;20127;-65
2023/01/11 13:06:55;;;;;;;8.15;1.92;;;20.10;63.70;;;;;;4535218;31;20142;-65
2023/01/11 13:09:49;;;;;;;8.85;1.70;;;20.20;63.80;;;;;;4551450;31;20136;-65
2023/01/11 13:12:27;;;;;;;7.43;1.73;;;20.20;63.80;;;;;;4552241;31;20119;-65
2023/01/11 13:14:55;;;;;;;8.82;1.80;;;20.20;63.80;;;;;;4545311;31;20183;-65
2023/01/11 13:17:30;;;;;;;8.57;1.95;;;20.20;63.80;;;;;;4556652;31;20145;-65
2023/01/11 13:20:12;;;;;;;5.88;1.80;;;20.30;63.90;;;;;;4544921;31;20135;-65
2023/01/11 13:22:42;;;;;;;10.25;1.92;;;20.30;63.90;;;;;;4557539;31;20325;-66
2023/01/11 13:25:26;;;;;;;8.13;1.70;;;20.30;63.90;;;;;;4529559;31;20134;-65
2023/01/11 13:27:54;;;;;;;6.63;1.85;;;20.30;63.90;;;;;;4560597;31;20142;-66
2023/01/11 13:30:23;;;;;;;8.50;2.15;;;20.30;63.90;;;;;;4562178;31;20130;-66
2023/01/11 13:33:01;;;;;;;5.40;1.60;;;20.30;63.90;;;;;;4544919;31;20132;-66
2023/01/11 13:35:44;;;;;;;7.63;1.92;;;20.40;64.00;;;;;;4542038;31;20131;-66
2023/01/11 13:38:21;;;;;;;7.63;1.80;;;20.40;64.00;;;;;;4531878;31;20089;-66
2023/01/11 13:40:51;;;;;;;6.45;1.85;;;20.40;64.00;;;;;;4560552;31;20119;-66
2023/01/11 13:43:34;;;;;;;8.55;1.92;;;20.40;64.80;;;;;;4561957;31;20190;-66
2023/01/11 13:46:09;;;;;;;4.30;1.60;;;20.40;63.90;;;;;;4542634;31;20273;-66
2023/01/11 13:48:48;;;;;;;6.10;1.92;;;20.40;63.90;;;;;;4560345;31;20591;-68
2023/01/11 13:51:14;;;;;;;5.45;1.75;;;20.40;64.00;;;;;;4557934;31;20133;-66
2023/01/11 13:54:07;;;;;;;7.70;2.15;;;20.50;64.00;;;;;;4555458;31;20265;-65